プンタアレナス の空港の天気 - METARとTAF

プンタアレナス空港 ( SCCI / PUQ ) - チリ プンタアレナス
飛行場実況気象(Metar)
観測時間06/17 15:00 CLT (06/17 19:00 UTC)
風向・風速北北西 3m/s
視程10km以上
天気現象
少しの雲 雲底高度 1220m
全天の8割程度の雲 雲底高度 6100m
気温6℃
湿度81%
気圧1011hPa
METARSCCI 171900Z 33006KT 9999 FEW040 BKN200 06/03 Q1011 NOSIG
過去の天気等 Google飛行場航空写真 Wunderground天気予報

過去48時間のMETAR

飛行場予報(TAF)
発表時間: 6/17 12:50 CLT (6/17 16:50 UTC)
予報対象時間: 17日14時 CLT ~ 18日14時 CLT
風向・風速西 6m/s
視程10km以上
少しの雲 雲底高度 1220m
17日14時 CLT ~ 17日18時 CLT に 確率 40% で一時的に
風向・風速西北西 6m/s
17日20時 CLT ~ 17日22時 CLT に徐々に
風向・風速西北西 9m/s
17日23時 CLT ~ 18日2時 CLT に一時的に
風向・風速西 13m/s 瞬間風速 18m/s
18日3時 CLT ~ 18日5時 CLT に徐々に
全天の4割程度の雲 雲底高度 1010m
TAF SCCI 171650Z 1718/1818 26012KT 9999 FEW040 TN06/1806Z TX09/1718Z
PROB40 TEMPO 1718/1722 29012KT
BECMG 1800/1802 30018KT
TEMPO 1803/1806 28025G35KT
BECMG 1807/1809 SCT033